sensor_id;sensor_type;location;lat;lon;timestamp;P1;durP1;ratioP1;P2;durP2;ratioP2
45944;SDS011;31655;48.972;10.686;2023-12-29T00:01:43;21.50;;;11.25;;
45944;SDS011;31655;48.972;10.686;2023-12-29T00:04:09;17.17;;;9.88;;
45944;SDS011;31655;48.972;10.686;2023-12-29T00:06:37;18.15;;;11.85;;
45944;SDS011;31655;48.972;10.686;2023-12-29T00:09:03;20.17;;;12.20;;
45944;SDS011;31655;48.972;10.686;2023-12-29T00:11:29;19.73;;;10.95;;
45944;SDS011;31655;48.972;10.686;2023-12-29T00:13:54;17.75;;;11.52;;
45944;SDS011;31655;48.972;10.686;2023-12-29T00:16:20;21.20;;;12.85;;
45944;SDS011;31655;48.972;10.686;2023-12-29T00:18:46;19.45;;;11.38;;
45944;SDS011;31655;48.972;10.686;2023-12-29T00:21:11;19.77;;;11.32;;
45944;SDS011;31655;48.972;10.686;2023-12-29T00:23:37;20.15;;;12.18;;
45944;SDS011;31655;48.972;10.686;2023-12-29T00:26:02;23.83;;;12.60;;
45944;SDS011;31655;48.972;10.686;2023-12-29T00:28:28;23.80;;;11.20;;
45944;SDS011;31655;48.972;10.686;2023-12-29T00:30:54;19.85;;;11.35;;
45944;SDS011;31655;48.972;10.686;2023-12-29T00:33:19;21.65;;;11.82;;
45944;SDS011;31655;48.972;10.686;2023-12-29T00:35:45;18.35;;;11.40;;
45944;SDS011;31655;48.972;10.686;2023-12-29T00:38:10;17.48;;;11.13;;
45944;SDS011;31655;48.972;10.686;2023-12-29T00:40:36;18.00;;;11.13;;
45944;SDS011;31655;48.972;10.686;2023-12-29T00:43:01;17.95;;;10.20;;
45944;SDS011;31655;48.972;10.686;2023-12-29T00:45:27;18.67;;;11.35;;
45944;SDS011;31655;48.972;10.686;2023-12-29T00:47:58;16.75;;;10.55;;
45944;SDS011;31655;48.972;10.686;2023-12-29T00:50:24;23.02;;;12.50;;
45944;SDS011;31655;48.972;10.686;2023-12-29T00:52:51;18.83;;;10.75;;
45944;SDS011;31655;48.972;10.686;2023-12-29T00:55:17;17.05;;;11.07;;
45944;SDS011;31655;48.972;10.686;2023-12-29T00:57:42;22.35;;;12.48;;
45944;SDS011;31655;48.972;10.686;2023-12-29T01:00:10;21.23;;;11.25;;
45944;SDS011;31655;48.972;10.686;2023-12-29T01:02:36;17.20;;;10.68;;
45944;SDS011;31655;48.972;10.686;2023-12-29T01:05:02;18.92;;;10.65;;
45944;SDS011;31655;48.972;10.686;2023-12-29T01:07:28;17.17;;;11.15;;
45944;SDS011;31655;48.972;10.686;2023-12-29T01:09:53;20.13;;;11.77;;
45944;SDS011;31655;48.972;10.686;2023-12-29T01:12:19;21.45;;;12.23;;
45944;SDS011;31655;48.972;10.686;2023-12-29T01:14:45;19.67;;;11.43;;
45944;SDS011;31655;48.972;10.686;2023-12-29T01:17:10;19.67;;;12.00;;
45944;SDS011;31655;48.972;10.686;2023-12-29T01:19:36;19.95;;;12.30;;
45944;SDS011;31655;48.972;10.686;2023-12-29T01:22:01;18.10;;;11.32;;
45944;SDS011;31655;48.972;10.686;2023-12-29T01:24:27;21.20;;;12.43;;
45944;SDS011;31655;48.972;10.686;2023-12-29T01:26:53;22.88;;;13.30;;
45944;SDS011;31655;48.972;10.686;2023-12-29T01:29:18;22.17;;;12.35;;
45944;SDS011;31655;48.972;10.686;2023-12-29T01:31:43;19.42;;;10.25;;
45944;SDS011;31655;48.972;10.686;2023-12-29T01:34:09;18.00;;;11.95;;
45944;SDS011;31655;48.972;10.686;2023-12-29T01:36:35;19.00;;;11.90;;
45944;SDS011;31655;48.972;10.686;2023-12-29T01:39:00;21.08;;;12.27;;
45944;SDS011;31655;48.972;10.686;2023-12-29T01:41:27;21.70;;;12.55;;
45944;SDS011;31655;48.972;10.686;2023-12-29T01:46:23;20.38;;;11.98;;
45944;SDS011;31655;48.972;10.686;2023-12-29T01:48:51;19.48;;;11.63;;
45944;SDS011;31655;48.972;10.686;2023-12-29T01:51:17;22.98;;;12.43;;
45944;SDS011;31655;48.972;10.686;2023-12-29T01:53:44;20.60;;;11.43;;
45944;SDS011;31655;48.972;10.686;2023-12-29T01:56:10;21.83;;;11.68;;
45944;SDS011;31655;48.972;10.686;2023-12-29T01:58:35;19.75;;;11.23;;
45944;SDS011;31655;48.972;10.686;2023-12-29T02:01:02;20.40;;;11.45;;
45944;SDS011;31655;48.972;10.686;2023-12-29T02:03:29;20.60;;;11.32;;
45944;SDS011;31655;48.972;10.686;2023-12-29T02:05:55;20.63;;;12.25;;
45944;SDS011;31655;48.972;10.686;2023-12-29T02:08:22;21.40;;;12.80;;
45944;SDS011;31655;48.972;10.686;2023-12-29T02:10:48;18.58;;;11.43;;
45944;SDS011;31655;48.972;10.686;2023-12-29T02:13:13;19.75;;;12.00;;
45944;SDS011;31655;48.972;10.686;2023-12-29T02:15:39;17.20;;;10.13;;
45944;SDS011;31655;48.972;10.686;2023-12-29T02:18:06;17.15;;;11.07;;
45944;SDS011;31655;48.972;10.686;2023-12-29T02:20:32;19.27;;;11.45;;
45944;SDS011;31655;48.972;10.686;2023-12-29T02:22:58;17.08;;;10.73;;
45944;SDS011;31655;48.972;10.686;2023-12-29T02:25:25;18.30;;;11.95;;
45944;SDS011;31655;48.972;10.686;2023-12-29T02:27:59;20.10;;;10.88;;
45944;SDS011;31655;48.972;10.686;2023-12-29T02:30:41;18.77;;;11.20;;
45944;SDS011;31655;48.972;10.686;2023-12-29T02:33:17;17.05;;;11.13;;
45944;SDS011;31655;48.972;10.686;2023-12-29T02:35:46;20.42;;;11.45;;
45944;SDS011;31655;48.972;10.686;2023-12-29T02:38:14;20.65;;;11.55;;
45944;SDS011;31655;48.972;10.686;2023-12-29T02:40:40;19.27;;;12.82;;
45944;SDS011;31655;48.972;10.686;2023-12-29T02:43:08;21.75;;;11.55;;
45944;SDS011;31655;48.972;10.686;2023-12-29T02:45:33;22.27;;;12.20;;
45944;SDS011;31655;48.972;10.686;2023-12-29T02:47:59;21.45;;;13.48;;
45944;SDS011;31655;48.972;10.686;2023-12-29T02:50:25;24.02;;;12.40;;
45944;SDS011;31655;48.972;10.686;2023-12-29T02:52:50;21.83;;;12.93;;
45944;SDS011;31655;48.972;10.686;2023-12-29T02:55:16;21.67;;;13.45;;
45944;SDS011;31655;48.972;10.686;2023-12-29T02:57:41;19.83;;;11.48;;
45944;SDS011;31655;48.972;10.686;2023-12-29T03:00:07;22.45;;;12.65;;
45944;SDS011;31655;48.972;10.686;2023-12-29T03:02:33;25.17;;;12.88;;
45944;SDS011;31655;48.972;10.686;2023-12-29T03:04:59;19.90;;;11.20;;
45944;SDS011;31655;48.972;10.686;2023-12-29T03:07:25;20.45;;;12.15;;
45944;SDS011;31655;48.972;10.686;2023-12-29T03:09:50;18.38;;;10.98;;
45944;SDS011;31655;48.972;10.686;2023-12-29T03:12:16;20.42;;;10.90;;
45944;SDS011;31655;48.972;10.686;2023-12-29T03:14:42;17.05;;;10.60;;
45944;SDS011;31655;48.972;10.686;2023-12-29T03:17:08;19.35;;;11.80;;
45944;SDS011;31655;48.972;10.686;2023-12-29T03:19:34;20.10;;;11.02;;
45944;SDS011;31655;48.972;10.686;2023-12-29T03:22:00;15.93;;;9.93;;
45944;SDS011;31655;48.972;10.686;2023-12-29T03:24:26;14.02;;;9.85;;
45944;SDS011;31655;48.972;10.686;2023-12-29T03:26:53;16.40;;;9.77;;
45944;SDS011;31655;48.972;10.686;2023-12-29T03:29:18;17.90;;;11.88;;
45944;SDS011;31655;48.972;10.686;2023-12-29T03:31:44;15.15;;;9.82;;
45944;SDS011;31655;48.972;10.686;2023-12-29T03:34:10;22.67;;;12.68;;
45944;SDS011;31655;48.972;10.686;2023-12-29T03:36:35;19.52;;;11.43;;
45944;SDS011;31655;48.972;10.686;2023-12-29T03:39:01;21.08;;;12.38;;
45944;SDS011;31655;48.972;10.686;2023-12-29T03:41:27;16.92;;;11.38;;
45944;SDS011;31655;48.972;10.686;2023-12-29T03:43:53;20.67;;;10.80;;
45944;SDS011;31655;48.972;10.686;2023-12-29T03:46:19;21.50;;;11.63;;
45944;SDS011;31655;48.972;10.686;2023-12-29T03:48:46;22.42;;;12.43;;
45944;SDS011;31655;48.972;10.686;2023-12-29T03:51:12;20.90;;;12.82;;
45944;SDS011;31655;48.972;10.686;2023-12-29T03:53:38;19.00;;;12.52;;
45944;SDS011;31655;48.972;10.686;2023-12-29T03:56:04;19.05;;;11.40;;
45944;SDS011;31655;48.972;10.686;2023-12-29T03:58:31;23.65;;;13.13;;
45944;SDS011;31655;48.972;10.686;2023-12-29T04:00:57;20.10;;;12.23;;
45944;SDS011;31655;48.972;10.686;2023-12-29T04:03:22;22.05;;;12.90;;
45944;SDS011;31655;48.972;10.686;2023-12-29T04:05:48;21.85;;;13.07;;
45944;SDS011;31655;48.972;10.686;2023-12-29T04:08:13;25.25;;;13.15;;
45944;SDS011;31655;48.972;10.686;2023-12-29T04:10:39;25.55;;;13.85;;
45944;SDS011;31655;48.972;10.686;2023-12-29T04:13:04;26.65;;;14.13;;
45944;SDS011;31655;48.972;10.686;2023-12-29T04:15:30;26.80;;;13.98;;
45944;SDS011;31655;48.972;10.686;2023-12-29T04:17:55;29.58;;;15.85;;
45944;SDS011;31655;48.972;10.686;2023-12-29T04:20:21;26.38;;;14.88;;
45944;SDS011;31655;48.972;10.686;2023-12-29T04:22:47;21.13;;;12.93;;
45944;SDS011;31655;48.972;10.686;2023-12-29T04:25:12;29.45;;;16.42;;
45944;SDS011;31655;48.972;10.686;2023-12-29T04:27:39;24.88;;;14.38;;
45944;SDS011;31655;48.972;10.686;2023-12-29T04:30:05;25.25;;;13.00;;
45944;SDS011;31655;48.972;10.686;2023-12-29T04:32:31;21.65;;;11.85;;
45944;SDS011;31655;48.972;10.686;2023-12-29T04:34:57;22.88;;;12.88;;
45944;SDS011;31655;48.972;10.686;2023-12-29T04:37:22;22.63;;;12.85;;
45944;SDS011;31655;48.972;10.686;2023-12-29T04:39:48;59.47;;;30.27;;
45944;SDS011;31655;48.972;10.686;2023-12-29T04:42:14;25.42;;;13.95;;
45944;SDS011;31655;48.972;10.686;2023-12-29T04:44:40;23.35;;;11.95;;
45944;SDS011;31655;48.972;10.686;2023-12-29T04:47:05;17.65;;;11.57;;
45944;SDS011;31655;48.972;10.686;2023-12-29T04:49:31;17.10;;;11.05;;
45944;SDS011;31655;48.972;10.686;2023-12-29T04:51:56;13.57;;;9.20;;
45944;SDS011;31655;48.972;10.686;2023-12-29T04:54:23;17.15;;;10.43;;
45944;SDS011;31655;48.972;10.686;2023-12-29T04:56:49;20.02;;;10.25;;
45944;SDS011;31655;48.972;10.686;2023-12-29T04:59:15;14.38;;;9.27;;
45944;SDS011;31655;48.972;10.686;2023-12-29T05:01:41;17.02;;;9.95;;
45944;SDS011;31655;48.972;10.686;2023-12-29T05:04:06;14.77;;;9.25;;
45944;SDS011;31655;48.972;10.686;2023-12-29T05:06:32;14.73;;;9.38;;
45944;SDS011;31655;48.972;10.686;2023-12-29T05:08:57;15.50;;;9.68;;
45944;SDS011;31655;48.972;10.686;2023-12-29T05:11:23;17.08;;;10.60;;
45944;SDS011;31655;48.972;10.686;2023-12-29T05:13:49;14.02;;;9.38;;
45944;SDS011;31655;48.972;10.686;2023-12-29T05:16:14;14.00;;;9.23;;
45944;SDS011;31655;48.972;10.686;2023-12-29T05:18:40;14.75;;;8.80;;
45944;SDS011;31655;48.972;10.686;2023-12-29T05:21:06;14.75;;;10.02;;
45944;SDS011;31655;48.972;10.686;2023-12-29T05:23:39;19.20;;;10.50;;
45944;SDS011;31655;48.972;10.686;2023-12-29T05:26:05;19.80;;;10.15;;
45944;SDS011;31655;48.972;10.686;2023-12-29T05:28:31;17.30;;;9.95;;
45944;SDS011;31655;48.972;10.686;2023-12-29T05:30:56;18.63;;;10.57;;
45944;SDS011;31655;48.972;10.686;2023-12-29T05:33:24;14.60;;;9.32;;
45944;SDS011;31655;48.972;10.686;2023-12-29T05:35:49;16.02;;;9.63;;
45944;SDS011;31655;48.972;10.686;2023-12-29T05:38:15;16.27;;;9.90;;
45944;SDS011;31655;48.972;10.686;2023-12-29T05:40:40;14.18;;;9.15;;
45944;SDS011;31655;48.972;10.686;2023-12-29T05:43:06;17.63;;;9.70;;
45944;SDS011;31655;48.972;10.686;2023-12-29T05:45:31;16.02;;;9.00;;
45944;SDS011;31655;48.972;10.686;2023-12-29T05:47:57;18.52;;;9.63;;
45944;SDS011;31655;48.972;10.686;2023-12-29T05:50:23;19.45;;;9.10;;
45944;SDS011;31655;48.972;10.686;2023-12-29T05:52:48;14.13;;;9.40;;
45944;SDS011;31655;48.972;10.686;2023-12-29T05:55:16;18.15;;;10.27;;
45944;SDS011;31655;48.972;10.686;2023-12-29T05:57:43;19.23;;;10.07;;
45944;SDS011;31655;48.972;10.686;2023-12-29T06:00:11;13.70;;;8.88;;
45944;SDS011;31655;48.972;10.686;2023-12-29T06:02:39;17.25;;;9.57;;
45944;SDS011;31655;48.972;10.686;2023-12-29T06:05:06;14.38;;;9.13;;
45944;SDS011;31655;48.972;10.686;2023-12-29T06:07:33;19.02;;;11.27;;
45944;SDS011;31655;48.972;10.686;2023-12-29T06:09:59;19.40;;;10.88;;
45944;SDS011;31655;48.972;10.686;2023-12-29T06:12:24;17.33;;;11.63;;
45944;SDS011;31655;48.972;10.686;2023-12-29T06:14:50;22.08;;;12.43;;
45944;SDS011;31655;48.972;10.686;2023-12-29T06:17:15;23.77;;;11.75;;
45944;SDS011;31655;48.972;10.686;2023-12-29T06:19:41;18.15;;;10.85;;
45944;SDS011;31655;48.972;10.686;2023-12-29T06:22:07;21.42;;;12.77;;
45944;SDS011;31655;48.972;10.686;2023-12-29T06:24:36;18.92;;;11.57;;
45944;SDS011;31655;48.972;10.686;2023-12-29T06:27:02;18.92;;;11.32;;
45944;SDS011;31655;48.972;10.686;2023-12-29T06:29:28;19.95;;;12.18;;
45944;SDS011;31655;48.972;10.686;2023-12-29T06:31:54;21.98;;;13.10;;
45944;SDS011;31655;48.972;10.686;2023-12-29T06:34:19;21.50;;;13.00;;
45944;SDS011;31655;48.972;10.686;2023-12-29T06:36:45;19.27;;;12.63;;
45944;SDS011;31655;48.972;10.686;2023-12-29T06:39:11;22.17;;;12.52;;
45944;SDS011;31655;48.972;10.686;2023-12-29T06:41:36;18.95;;;11.13;;
45944;SDS011;31655;48.972;10.686;2023-12-29T06:44:02;17.23;;;11.35;;
45944;SDS011;31655;48.972;10.686;2023-12-29T06:46:27;19.30;;;11.63;;
45944;SDS011;31655;48.972;10.686;2023-12-29T06:48:53;21.67;;;12.02;;
45944;SDS011;31655;48.972;10.686;2023-12-29T06:51:19;18.85;;;11.02;;
45944;SDS011;31655;48.972;10.686;2023-12-29T06:53:48;24.40;;;12.32;;
45944;SDS011;31655;48.972;10.686;2023-12-29T06:56:17;22.55;;;11.93;;
45944;SDS011;31655;48.972;10.686;2023-12-29T06:58:43;22.88;;;11.90;;
45944;SDS011;31655;48.972;10.686;2023-12-29T07:01:09;17.88;;;10.43;;
45944;SDS011;31655;48.972;10.686;2023-12-29T07:03:35;20.05;;;10.63;;
45944;SDS011;31655;48.972;10.686;2023-12-29T07:06:01;22.48;;;11.68;;
45944;SDS011;31655;48.972;10.686;2023-12-29T07:08:27;22.08;;;11.25;;
45944;SDS011;31655;48.972;10.686;2023-12-29T07:10:53;17.52;;;11.05;;
45944;SDS011;31655;48.972;10.686;2023-12-29T07:13:18;20.17;;;13.55;;
45944;SDS011;31655;48.972;10.686;2023-12-29T07:15:45;18.17;;;11.05;;
45944;SDS011;31655;48.972;10.686;2023-12-29T07:18:14;19.63;;;11.07;;
45944;SDS011;31655;48.972;10.686;2023-12-29T07:20:40;17.30;;;10.98;;
45944;SDS011;31655;48.972;10.686;2023-12-29T07:23:05;19.05;;;10.18;;
45944;SDS011;31655;48.972;10.686;2023-12-29T07:25:31;18.00;;;10.48;;
45944;SDS011;31655;48.972;10.686;2023-12-29T07:27:57;17.83;;;11.40;;
45944;SDS011;31655;48.972;10.686;2023-12-29T07:30:23;18.50;;;10.50;;
45944;SDS011;31655;48.972;10.686;2023-12-29T07:32:48;17.63;;;10.45;;
45944;SDS011;31655;48.972;10.686;2023-12-29T07:35:14;17.35;;;10.13;;
45944;SDS011;31655;48.972;10.686;2023-12-29T07:37:42;18.70;;;11.07;;
45944;SDS011;31655;48.972;10.686;2023-12-29T07:40:10;18.17;;;11.52;;
45944;SDS011;31655;48.972;10.686;2023-12-29T07:42:39;17.75;;;10.82;;
45944;SDS011;31655;48.972;10.686;2023-12-29T07:45:05;16.58;;;9.60;;
45944;SDS011;31655;48.972;10.686;2023-12-29T07:47:31;14.45;;;9.13;;
45944;SDS011;31655;48.972;10.686;2023-12-29T07:49:57;18.98;;;10.05;;
45944;SDS011;31655;48.972;10.686;2023-12-29T07:52:23;13.05;;;8.55;;
45944;SDS011;31655;48.972;10.686;2023-12-29T07:54:48;13.43;;;9.30;;
45944;SDS011;31655;48.972;10.686;2023-12-29T07:57:14;14.73;;;9.20;;
45944;SDS011;31655;48.972;10.686;2023-12-29T07:59:40;15.55;;;8.88;;
45944;SDS011;31655;48.972;10.686;2023-12-29T08:02:05;15.40;;;9.57;;
45944;SDS011;31655;48.972;10.686;2023-12-29T08:04:31;24.13;;;10.77;;
45944;SDS011;31655;48.972;10.686;2023-12-29T08:06:57;16.38;;;10.05;;
45944;SDS011;31655;48.972;10.686;2023-12-29T08:09:23;13.85;;;9.20;;
45944;SDS011;31655;48.972;10.686;2023-12-29T08:11:48;14.35;;;8.63;;
45944;SDS011;31655;48.972;10.686;2023-12-29T08:14:14;16.42;;;9.20;;
45944;SDS011;31655;48.972;10.686;2023-12-29T08:16:40;16.42;;;9.32;;
45944;SDS011;31655;48.972;10.686;2023-12-29T08:19:06;18.65;;;9.40;;
45944;SDS011;31655;48.972;10.686;2023-12-29T08:21:32;14.23;;;10.07;;
45944;SDS011;31655;48.972;10.686;2023-12-29T08:23:58;17.95;;;8.52;;
45944;SDS011;31655;48.972;10.686;2023-12-29T08:26:23;14.75;;;10.00;;
45944;SDS011;31655;48.972;10.686;2023-12-29T08:28:49;15.10;;;8.32;;
45944;SDS011;31655;48.972;10.686;2023-12-29T08:31:15;14.45;;;8.68;;
45944;SDS011;31655;48.972;10.686;2023-12-29T08:33:44;12.90;;;7.63;;
45944;SDS011;31655;48.972;10.686;2023-12-29T08:36:11;17.52;;;8.52;;
45944;SDS011;31655;48.972;10.686;2023-12-29T08:38:36;12.45;;;7.72;;
45944;SDS011;31655;48.972;10.686;2023-12-29T08:41:02;14.35;;;8.52;;
45944;SDS011;31655;48.972;10.686;2023-12-29T08:43:28;11.90;;;7.28;;
45944;SDS011;31655;48.972;10.686;2023-12-29T08:45:53;11.73;;;7.65;;
45944;SDS011;31655;48.972;10.686;2023-12-29T08:48:19;10.45;;;7.43;;
45944;SDS011;31655;48.972;10.686;2023-12-29T08:50:45;12.30;;;7.45;;
45944;SDS011;31655;48.972;10.686;2023-12-29T08:53:11;10.95;;;7.05;;
45944;SDS011;31655;48.972;10.686;2023-12-29T08:55:36;10.75;;;6.53;;
45944;SDS011;31655;48.972;10.686;2023-12-29T08:58:02;11.63;;;7.40;;
45944;SDS011;31655;48.972;10.686;2023-12-29T09:00:28;13.57;;;6.88;;
45944;SDS011;31655;48.972;10.686;2023-12-29T09:02:56;12.32;;;6.88;;
45944;SDS011;31655;48.972;10.686;2023-12-29T09:05:22;10.98;;;7.15;;
45944;SDS011;31655;48.972;10.686;2023-12-29T09:07:48;10.68;;;7.57;;
45944;SDS011;31655;48.972;10.686;2023-12-29T09:10:14;10.38;;;6.75;;
45944;SDS011;31655;48.972;10.686;2023-12-29T09:12:39;9.77;;;6.20;;
45944;SDS011;31655;48.972;10.686;2023-12-29T09:15:06;11.77;;;6.03;;
45944;SDS011;31655;48.972;10.686;2023-12-29T09:17:32;9.43;;;6.05;;
45944;SDS011;31655;48.972;10.686;2023-12-29T09:19:58;9.95;;;6.60;;
45944;SDS011;31655;48.972;10.686;2023-12-29T09:22:23;11.38;;;6.43;;
45944;SDS011;31655;48.972;10.686;2023-12-29T09:24:49;11.52;;;7.63;;
45944;SDS011;31655;48.972;10.686;2023-12-29T09:27:15;13.88;;;6.45;;
45944;SDS011;31655;48.972;10.686;2023-12-29T09:29:41;9.90;;;6.80;;
45944;SDS011;31655;48.972;10.686;2023-12-29T09:32:06;14.38;;;7.55;;
45944;SDS011;31655;48.972;10.686;2023-12-29T09:34:32;12.48;;;6.60;;
45944;SDS011;31655;48.972;10.686;2023-12-29T09:36:57;12.40;;;7.40;;
45944;SDS011;31655;48.972;10.686;2023-12-29T09:39:23;11.15;;;7.25;;
45944;SDS011;31655;48.972;10.686;2023-12-29T09:41:51;11.68;;;6.85;;
45944;SDS011;31655;48.972;10.686;2023-12-29T09:44:18;11.27;;;5.85;;
45944;SDS011;31655;48.972;10.686;2023-12-29T09:46:46;9.70;;;6.13;;
45944;SDS011;31655;48.972;10.686;2023-12-29T09:49:15;8.90;;;6.10;;
45944;SDS011;31655;48.972;10.686;2023-12-29T09:51:43;10.00;;;6.60;;
45944;SDS011;31655;48.972;10.686;2023-12-29T09:54:09;11.30;;;6.45;;
45944;SDS011;31655;48.972;10.686;2023-12-29T09:56:36;11.88;;;6.43;;
45944;SDS011;31655;48.972;10.686;2023-12-29T09:59:02;9.55;;;6.65;;
45944;SDS011;31655;48.972;10.686;2023-12-29T10:01:28;8.20;;;5.72;;
45944;SDS011;31655;48.972;10.686;2023-12-29T10:03:55;10.82;;;7.13;;
45944;SDS011;31655;48.972;10.686;2023-12-29T10:06:23;13.63;;;7.13;;
45944;SDS011;31655;48.972;10.686;2023-12-29T10:08:50;12.93;;;7.22;;
45944;SDS011;31655;48.972;10.686;2023-12-29T10:11:18;12.30;;;6.65;;
45944;SDS011;31655;48.972;10.686;2023-12-29T10:13:49;8.57;;;5.30;;
45944;SDS011;31655;48.972;10.686;2023-12-29T10:22:03;8.75;;;5.53;;
45944;SDS011;31655;48.972;10.686;2023-12-29T10:24:43;7.90;;;5.25;;
45944;SDS011;31655;48.972;10.686;2023-12-29T10:27:11;8.57;;;5.65;;
45944;SDS011;31655;48.972;10.686;2023-12-29T10:29:37;7.70;;;5.03;;
45944;SDS011;31655;48.972;10.686;2023-12-29T10:32:03;8.63;;;5.32;;
45944;SDS011;31655;48.972;10.686;2023-12-29T10:34:29;6.07;;;4.05;;
45944;SDS011;31655;48.972;10.686;2023-12-29T10:36:55;7.78;;;4.88;;
45944;SDS011;31655;48.972;10.686;2023-12-29T10:39:21;8.65;;;4.72;;
45944;SDS011;31655;48.972;10.686;2023-12-29T10:41:47;8.25;;;5.18;;
45944;SDS011;31655;48.972;10.686;2023-12-29T10:44:13;9.95;;;5.57;;
45944;SDS011;31655;48.972;10.686;2023-12-29T10:46:38;10.30;;;5.35;;
45944;SDS011;31655;48.972;10.686;2023-12-29T10:49:08;10.27;;;5.95;;
45944;SDS011;31655;48.972;10.686;2023-12-29T10:51:37;10.80;;;5.00;;
45944;SDS011;31655;48.972;10.686;2023-12-29T10:54:04;7.10;;;5.20;;
45944;SDS011;31655;48.972;10.686;2023-12-29T10:56:30;7.07;;;4.40;;
45944;SDS011;31655;48.972;10.686;2023-12-29T10:59:03;7.55;;;5.30;;
45944;SDS011;31655;48.972;10.686;2023-12-29T11:01:33;8.52;;;4.93;;
45944;SDS011;31655;48.972;10.686;2023-12-29T11:04:01;8.57;;;5.18;;
45944;SDS011;31655;48.972;10.686;2023-12-29T11:06:40;9.25;;;5.40;;
45944;SDS011;31655;48.972;10.686;2023-12-29T11:09:09;7.75;;;5.50;;
45944;SDS011;31655;48.972;10.686;2023-12-29T11:11:35;7.32;;;5.10;;
45944;SDS011;31655;48.972;10.686;2023-12-29T11:14:02;8.05;;;5.70;;
45944;SDS011;31655;48.972;10.686;2023-12-29T11:16:28;7.10;;;5.30;;
45944;SDS011;31655;48.972;10.686;2023-12-29T11:18:54;7.82;;;5.00;;
45944;SDS011;31655;48.972;10.686;2023-12-29T11:21:22;10.07;;;5.70;;
45944;SDS011;31655;48.972;10.686;2023-12-29T11:23:51;8.50;;;5.47;;
45944;SDS011;31655;48.972;10.686;2023-12-29T11:26:17;8.80;;;6.25;;
45944;SDS011;31655;48.972;10.686;2023-12-29T11:28:46;9.63;;;5.40;;
45944;SDS011;31655;48.972;10.686;2023-12-29T11:31:13;9.85;;;5.75;;
45944;SDS011;31655;48.972;10.686;2023-12-29T11:33:42;10.43;;;6.30;;
45944;SDS011;31655;48.972;10.686;2023-12-29T11:36:18;7.70;;;4.93;;
45944;SDS011;31655;48.972;10.686;2023-12-29T14:04:34;6.90;;;4.82;;
45944;SDS011;31655;48.972;10.686;2023-12-29T14:07:00;9.45;;;4.95;;
45944;SDS011;31655;48.972;10.686;2023-12-29T14:09:27;4.63;;;3.58;;
45944;SDS011;31655;48.972;10.686;2023-12-29T14:11:53;5.78;;;4.07;;
45944;SDS011;31655;48.972;10.686;2023-12-29T14:14:22;9.52;;;5.35;;
45944;SDS011;31655;48.972;10.686;2023-12-29T14:16:52;9.35;;;5.07;;
45944;SDS011;31655;48.972;10.686;2023-12-29T14:19:18;7.63;;;4.93;;
45944;SDS011;31655;48.972;10.686;2023-12-29T14:21:44;5.53;;;4.28;;
45944;SDS011;31655;48.972;10.686;2023-12-29T14:24:13;7.90;;;4.30;;
45944;SDS011;31655;48.972;10.686;2023-12-29T14:29:18;9.45;;;5.90;;
45944;SDS011;31655;48.972;10.686;2023-12-29T14:31:44;6.55;;;4.10;;
45944;SDS011;31655;48.972;10.686;2023-12-29T14:34:11;6.15;;;4.53;;
45944;SDS011;31655;48.972;10.686;2023-12-29T14:36:38;12.23;;;7.95;;
45944;SDS011;31655;48.972;10.686;2023-12-29T14:39:06;6.45;;;5.40;;
45944;SDS011;31655;48.972;10.686;2023-12-29T14:41:32;7.55;;;4.72;;
45944;SDS011;31655;48.972;10.686;2023-12-29T14:43:58;5.25;;;4.03;;
45944;SDS011;31655;48.972;10.686;2023-12-29T14:46:24;7.85;;;4.47;;
45944;SDS011;31655;48.972;10.686;2023-12-29T14:48:51;5.88;;;4.00;;
45944;SDS011;31655;48.972;10.686;2023-12-29T14:51:18;6.35;;;4.03;;
45944;SDS011;31655;48.972;10.686;2023-12-29T14:53:47;6.15;;;3.92;;
45944;SDS011;31655;48.972;10.686;2023-12-29T14:56:14;5.28;;;4.30;;
45944;SDS011;31655;48.972;10.686;2023-12-29T14:58:40;8.77;;;5.60;;
45944;SDS011;31655;48.972;10.686;2023-12-29T15:01:09;6.15;;;4.10;;
45944;SDS011;31655;48.972;10.686;2023-12-29T15:03:35;9.80;;;4.85;;
45944;SDS011;31655;48.972;10.686;2023-12-29T15:06:01;9.30;;;4.60;;
45944;SDS011;31655;48.972;10.686;2023-12-29T15:08:28;6.90;;;4.15;;
45944;SDS011;31655;48.972;10.686;2023-12-29T15:10:59;5.90;;;4.05;;
45944;SDS011;31655;48.972;10.686;2023-12-29T15:13:28;5.93;;;4.25;;
45944;SDS011;31655;48.972;10.686;2023-12-29T15:15:55;5.53;;;3.97;;
45944;SDS011;31655;48.972;10.686;2023-12-29T15:18:22;5.20;;;3.40;;
45944;SDS011;31655;48.972;10.686;2023-12-29T15:20:48;6.82;;;4.55;;
45944;SDS011;31655;48.972;10.686;2023-12-29T15:23:14;5.82;;;3.90;;
45944;SDS011;31655;48.972;10.686;2023-12-29T15:25:39;6.97;;;3.75;;
45944;SDS011;31655;48.972;10.686;2023-12-29T15:28:07;6.07;;;3.97;;
45944;SDS011;31655;48.972;10.686;2023-12-29T15:30:33;10.57;;;4.68;;
45944;SDS011;31655;48.972;10.686;2023-12-29T15:32:58;6.45;;;4.47;;
45944;SDS011;31655;48.972;10.686;2023-12-29T15:35:24;8.50;;;5.82;;
45944;SDS011;31655;48.972;10.686;2023-12-29T15:37:49;7.78;;;4.13;;
45944;SDS011;31655;48.972;10.686;2023-12-29T15:40:15;6.32;;;3.97;;
45944;SDS011;31655;48.972;10.686;2023-12-29T15:42:40;6.53;;;3.50;;
45944;SDS011;31655;48.972;10.686;2023-12-29T15:45:06;6.13;;;4.40;;
45944;SDS011;31655;48.972;10.686;2023-12-29T15:47:32;7.53;;;4.68;;
45944;SDS011;31655;48.972;10.686;2023-12-29T15:49:57;13.02;;;5.47;;
45944;SDS011;31655;48.972;10.686;2023-12-29T15:52:23;8.95;;;5.38;;
45944;SDS011;31655;48.972;10.686;2023-12-29T15:54:51;4.45;;;3.70;;
45944;SDS011;31655;48.972;10.686;2023-12-29T15:57:17;6.30;;;4.38;;
45944;SDS011;31655;48.972;10.686;2023-12-29T15:59:42;6.78;;;4.13;;
45944;SDS011;31655;48.972;10.686;2023-12-29T16:02:09;5.13;;;3.53;;
45944;SDS011;31655;48.972;10.686;2023-12-29T16:04:36;6.63;;;3.85;;
45944;SDS011;31655;48.972;10.686;2023-12-29T16:07:02;7.32;;;4.57;;
45944;SDS011;31655;48.972;10.686;2023-12-29T16:09:28;5.65;;;4.38;;
45944;SDS011;31655;48.972;10.686;2023-12-29T16:11:53;7.75;;;4.30;;
45944;SDS011;31655;48.972;10.686;2023-12-29T16:14:20;5.45;;;3.85;;
45944;SDS011;31655;48.972;10.686;2023-12-29T16:16:48;9.10;;;5.40;;
45944;SDS011;31655;48.972;10.686;2023-12-29T16:19:14;5.32;;;3.38;;
45944;SDS011;31655;48.972;10.686;2023-12-29T16:21:39;4.18;;;3.53;;
45944;SDS011;31655;48.972;10.686;2023-12-29T16:24:08;5.72;;;3.60;;
45944;SDS011;31655;48.972;10.686;2023-12-29T16:26:34;6.00;;;3.75;;
45944;SDS011;31655;48.972;10.686;2023-12-29T16:29:01;5.03;;;3.83;;
45944;SDS011;31655;48.972;10.686;2023-12-29T16:31:29;6.90;;;3.80;;
45944;SDS011;31655;48.972;10.686;2023-12-29T16:33:54;5.45;;;4.25;;
45944;SDS011;31655;48.972;10.686;2023-12-29T16:36:20;5.63;;;4.15;;
45944;SDS011;31655;48.972;10.686;2023-12-29T16:38:49;6.18;;;4.18;;
45944;SDS011;31655;48.972;10.686;2023-12-29T16:41:17;7.68;;;4.43;;
45944;SDS011;31655;48.972;10.686;2023-12-29T16:43:44;7.55;;;4.40;;
45944;SDS011;31655;48.972;10.686;2023-12-29T16:46:10;5.95;;;3.58;;
45944;SDS011;31655;48.972;10.686;2023-12-29T16:48:36;4.78;;;3.40;;
45944;SDS011;31655;48.972;10.686;2023-12-29T16:51:01;4.68;;;3.65;;